Terminal Aerodrome Forecast
Issued by NWS Blacksburg, VA

Home | Current Version | Previous Version | Text Only | Print | Product List | Glossary On
Versions: 1 2 3 4 5 6 7 8 9 10 11 12 13 14 15 16 17 18 19 20 21 22 23 24 25 26 27 28 29 30 31 32 33 34 35 36 37 38 39 40 41 42 43 44 45 46 47 48
000
FTUS41 KRNK 221722
TAFDAN
TAF
KDAN 221722Z 2218/2318 05005KT P6SM VCTS SCT025 BKN040CB
      TEMPO 2218/2222 4SM SHRA BKN025
     FM222300 12003KT P6SM BKN035 BKN060
     FM230700 24003KT 4SM BR SCT015
     FM231400 25006KT P6SM BKN040=

USA.gov is the U.S. government's official web portal to all federal, state and local government web resources and services.